Time;durP1;ratioP1;P1;durP2;ratioP2;P2;SDS_P1;SDS_P2;PMS_P1;PMS_P2;Temp;Humidity;BMP_temperature;BMP_pressure;BME280_temperature;BME280_humidity;BME280_pressure;Samples;Min_cycle;Max_cycle;Signal;HPM_P1;HPM_P2
2021/09/19 00:01:11;;;;;;;8.02;3.40;;;20.50;99.80;;;;;;5051799;28;20060;-74
2021/09/19 00:03:36;;;;;;;5.47;3.55;;;20.50;99.90;;;;;;5050938;28;20033;-73
2021/09/19 00:06:03;;;;;;;5.78;3.20;;;20.40;99.90;;;;;;5051037;28;20029;-73
2021/09/19 00:08:29;;;;;;;5.35;3.33;;;20.40;99.90;;;;;;5052346;28;20072;-72
2021/09/19 00:10:56;;;;;;;6.45;2.88;;;20.20;99.90;;;;;;5053407;28;20517;-73
2021/09/19 00:13:22;;;;;;;5.38;3.22;;;20.20;99.90;;;;;;5052397;28;20017;-73
2021/09/19 00:15:47;;;;;;;6.30;3.78;;;20.10;99.90;;;;;;5053199;28;20102;-73
2021/09/19 00:18:13;;;;;;;7.40;3.05;;;20.10;99.90;;;;;;5052951;28;20029;-73
2021/09/19 00:20:39;;;;;;;6.22;3.55;;;20.00;99.90;;;;;;5053312;28;20111;-73
2021/09/19 00:23:07;;;;;;;9.20;3.50;;;20.00;99.90;;;;;;5052352;28;20422;-73
2021/09/19 00:25:32;;;;;;;5.93;3.30;;;20.00;99.90;;;;;;5053127;28;20053;-72
2021/09/19 00:27:58;;;;;;;7.85;4.50;;;19.90;99.90;;;;;;5052902;28;20499;-73
2021/09/19 00:30:25;;;;;;;9.70;4.43;;;19.90;99.90;;;;;;5052440;28;20039;-73
2021/09/19 00:32:51;;;;;;;6.07;3.35;;;19.90;99.90;;;;;;5052827;28;20540;-73
2021/09/19 00:35:17;;;;;;;5.50;3.53;;;19.90;99.90;;;;;;5051725;28;20033;-73
2021/09/19 00:37:42;;;;;;;6.03;3.72;;;19.90;99.90;;;;;;5052793;28;20108;-73
2021/09/19 00:40:09;;;;;;;4.82;2.95;;;19.90;99.90;;;;;;5051829;28;20086;-73
2021/09/19 00:42:35;;;;;;;5.65;3.40;;;19.90;99.90;;;;;;5051796;28;20017;-73
2021/09/19 00:45:06;;;;;;;5.60;3.10;;;19.90;99.90;;;;;;5051735;28;20013;-73
2021/09/19 00:47:32;;;;;;;6.32;3.90;;;19.60;99.90;;;;;;5052701;28;20503;-73
2021/09/19 00:49:58;;;;;;;6.28;3.90;;;19.60;99.90;;;;;;5045674;28;20032;-73
2021/09/19 00:52:24;;;;;;;5.05;3.35;;;19.60;99.90;;;;;;5050720;28;20048;-72
2021/09/19 00:54:50;;;;;;;6.68;3.80;;;19.70;99.90;;;;;;5048445;28;20033;-73
2021/09/19 00:57:17;;;;;;;6.72;3.78;;;19.70;99.90;;;;;;5050771;28;20110;-73
2021/09/19 00:59:48;;;;;;;7.55;3.40;;;19.70;99.90;;;;;;5050801;28;20166;-73
2021/09/19 01:02:14;;;;;;;5.47;3.63;;;19.70;99.90;;;;;;5050423;28;20379;-73
2021/09/19 01:04:40;;;;;;;7.47;4.10;;;19.70;99.90;;;;;;5049742;28;20107;-73
2021/09/19 01:07:06;;;;;;;5.97;3.50;;;19.70;99.90;;;;;;5049527;28;20067;-73
2021/09/19 01:09:33;;;;;;;8.65;3.97;;;19.60;99.90;;;;;;5051775;28;20028;-73
2021/09/19 01:12:00;;;;;;;4.22;2.90;;;19.70;99.90;;;;;;5052178;28;20506;-73
2021/09/19 01:14:28;;;;;;;6.32;3.08;;;19.70;99.90;;;;;;5051637;28;20495;-73
2021/09/19 01:16:56;;;;;;;5.50;3.10;;;19.70;99.90;;;;;;5051436;28;20021;-73
2021/09/19 01:19:24;;;;;;;7.53;4.05;;;19.70;99.90;;;;;;5051842;28;20268;-73
2021/09/19 01:21:51;;;;;;;8.75;4.10;;;19.70;99.90;;;;;;5051926;28;20025;-73
2021/09/19 01:24:18;;;;;;;6.53;3.42;;;19.60;99.90;;;;;;5051205;28;20048;-73
2021/09/19 01:26:44;;;;;;;6.40;3.88;;;19.60;99.90;;;;;;5051152;28;20025;-73
2021/09/19 01:29:10;;;;;;;8.38;4.32;;;19.50;99.90;;;;;;5051792;28;20025;-73
2021/09/19 01:31:38;;;;;;;7.47;4.15;;;19.50;99.90;;;;;;5051648;28;20060;-73
2021/09/19 01:34:04;;;;;;;7.00;4.03;;;19.50;99.90;;;;;;5051318;28;20060;-74
2021/09/19 01:36:36;;;;;;;8.80;3.90;;;19.40;99.90;;;;;;5050762;28;20065;-73
2021/09/19 01:39:05;;;;;;;7.53;4.03;;;19.30;99.90;;;;;;5051381;28;20389;-73
2021/09/19 01:41:31;;;;;;;7.63;3.85;;;19.30;99.90;;;;;;5051472;28;20503;-73
2021/09/19 01:43:57;;;;;;;8.65;3.28;;;19.30;99.90;;;;;;5051516;28;20025;-73
2021/09/19 01:46:23;;;;;;;9.38;4.07;;;19.30;99.90;;;;;;5050001;28;20032;-72
2021/09/19 01:48:49;;;;;;;7.57;3.65;;;19.30;99.90;;;;;;5050484;28;20037;-74
2021/09/19 01:51:15;;;;;;;8.02;4.55;;;19.30;99.90;;;;;;5041858;28;20100;-73
2021/09/19 01:53:41;;;;;;;6.82;3.70;;;19.40;99.90;;;;;;5049976;28;20559;-73
2021/09/19 01:56:08;;;;;;;8.15;4.32;;;19.40;99.90;;;;;;5049286;28;20064;-73
2021/09/19 01:58:45;;;;;;;6.50;4.32;;;19.40;99.90;;;;;;5048743;28;20147;-73
2021/09/19 02:01:12;;;;;;;8.93;5.10;;;19.30;99.90;;;;;;5048803;28;20033;-73
2021/09/19 02:03:38;;;;;;;8.98;5.40;;;19.10;99.90;;;;;;5029730;28;20048;-73
2021/09/19 02:06:06;;;;;;;8.13;5.70;;;19.10;99.90;;;;;;5036385;28;20112;-74
2021/09/19 02:08:35;;;;;;;7.03;5.75;;;19.20;99.90;;;;;;5048849;28;20041;-73
2021/09/19 02:11:05;;;;;;;8.23;5.55;;;19.20;99.90;;;;;;5050601;28;20523;-73
2021/09/19 02:13:32;;;;;;;8.77;4.57;;;19.20;99.90;;;;;;5051419;28;20120;-73
2021/09/19 02:15:59;;;;;;;9.88;4.78;;;19.30;99.90;;;;;;5051293;28;20443;-73
2021/09/19 02:18:26;;;;;;;8.02;5.38;;;19.20;99.90;;;;;;5050887;28;20538;-73
2021/09/19 02:20:52;;;;;;;10.10;5.75;;;19.30;99.90;;;;;;5050860;28;20025;-73
2021/09/19 02:23:17;;;;;;;9.00;6.50;;;19.20;99.90;;;;;;5050641;28;20029;-73
2021/09/19 02:25:43;;;;;;;13.30;6.60;;;19.10;99.90;;;;;;5050924;28;20036;-73
2021/09/19 02:28:09;;;;;;;9.77;6.68;;;19.00;99.90;;;;;;5051150;28;20025;-73
2021/09/19 02:30:35;;;;;;;9.30;6.70;;;18.90;99.90;;;;;;5050368;28;20028;-73
2021/09/19 02:33:01;;;;;;;10.50;6.25;;;18.90;99.90;;;;;;5050916;28;20033;-73
2021/09/19 02:35:26;;;;;;;10.88;5.50;;;18.90;99.90;;;;;;5050907;28;20036;-73
2021/09/19 02:37:52;;;;;;;8.48;5.53;;;18.90;99.90;;;;;;5051429;28;20033;-73
2021/09/19 02:40:18;;;;;;;9.25;5.68;;;18.80;99.90;;;;;;5050113;28;20013;-73
2021/09/19 02:42:45;;;;;;;7.65;5.45;;;18.70;99.90;;;;;;5050315;28;20033;-73
2021/09/19 02:45:12;;;;;;;9.02;5.20;;;18.80;99.90;;;;;;5050624;28;20025;-73
2021/09/19 02:47:38;;;;;;;8.45;5.50;;;18.90;99.90;;;;;;5033088;28;20072;-73
2021/09/19 02:50:06;;;;;;;6.32;4.45;;;19.00;99.90;;;;;;5050242;28;20057;-73
2021/09/19 02:52:32;;;;;;;6.55;4.28;;;19.00;99.90;;;;;;5036959;28;20037;-73
2021/09/19 02:54:58;;;;;;;10.45;4.07;;;19.00;99.90;;;;;;5049651;28;20028;-73
2021/09/19 02:57:24;;;;;;;7.32;4.88;;;18.90;99.90;;;;;;5049136;28;20033;-73
2021/09/19 02:59:49;;;;;;;8.27;4.93;;;18.90;99.90;;;;;;5052938;28;20029;-74
2021/09/19 03:02:15;;;;;;;9.70;4.68;;;19.00;99.90;;;;;;5045876;28;20017;-73
2021/09/19 03:04:41;;;;;;;6.95;5.32;;;19.00;99.90;;;;;;5043311;28;20673;-73
2021/09/19 03:07:06;;;;;;;8.98;5.60;;;18.90;99.90;;;;;;5045408;28;20057;-74
2021/09/19 03:09:32;;;;;;;8.10;5.43;;;18.90;99.90;;;;;;5044941;28;20025;-73
2021/09/19 03:11:58;;;;;;;10.32;5.75;;;18.90;99.90;;;;;;5046534;28;20136;-74
2021/09/19 03:14:23;;;;;;;10.73;5.25;;;18.90;99.90;;;;;;5045904;28;20088;-74
2021/09/19 03:16:49;;;;;;;8.13;5.55;;;18.90;99.90;;;;;;5047377;28;20024;-74
2021/09/19 03:19:15;;;;;;;5.97;4.57;;;19.00;99.90;;;;;;5046374;28;20049;-73
2021/09/19 03:21:40;;;;;;;14.30;5.60;;;18.90;99.90;;;;;;5047294;28;20348;-73
2021/09/19 03:24:06;;;;;;;9.55;5.50;;;19.00;99.90;;;;;;5049350;28;20079;-73
2021/09/19 03:26:32;;;;;;;8.48;5.47;;;19.00;99.90;;;;;;5049752;28;20052;-74
2021/09/19 03:28:57;;;;;;;9.15;4.20;;;19.00;99.90;;;;;;5049897;28;20398;-73
2021/09/19 03:31:23;;;;;;;7.63;5.55;;;19.00;99.90;;;;;;5049364;28;20491;-74
2021/09/19 03:33:49;;;;;;;11.63;6.32;;;19.00;99.90;;;;;;5049154;28;20079;-73
2021/09/19 03:36:15;;;;;;;8.75;4.63;;;18.90;99.90;;;;;;5049401;28;20033;-74
2021/09/19 03:38:40;;;;;;;7.07;4.82;;;18.90;99.90;;;;;;5049528;28;20658;-73
2021/09/19 03:41:06;;;;;;;10.50;6.10;;;18.90;99.90;;;;;;5049012;28;20698;-73
2021/09/19 03:43:32;;;;;;;8.32;5.97;;;18.80;99.90;;;;;;5048721;28;20146;-74
2021/09/19 03:45:57;;;;;;;10.15;6.72;;;18.60;99.90;;;;;;5049289;28;20035;-73
2021/09/19 03:48:23;;;;;;;11.80;7.90;;;18.70;99.90;;;;;;5048994;28;20037;-73
2021/09/19 03:50:49;;;;;;;13.50;9.60;;;18.70;99.90;;;;;;5048761;28;20621;-73
2021/09/19 03:53:15;;;;;;;12.25;8.00;;;18.70;99.90;;;;;;5029901;28;20034;-73
2021/09/19 03:55:41;;;;;;;8.70;6.68;;;18.60;99.90;;;;;;5047417;28;20048;-73
2021/09/19 03:58:06;;;;;;;9.23;6.53;;;18.50;99.90;;;;;;5045803;28;20037;-73
2021/09/19 04:00:32;;;;;;;9.73;5.93;;;18.60;99.90;;;;;;5043363;28;20454;-73
2021/09/19 04:02:58;;;;;;;7.78;5.88;;;18.70;99.90;;;;;;5043534;28;20605;-74
2021/09/19 04:05:24;;;;;;;9.18;7.35;;;18.80;99.90;;;;;;5043627;28;20375;-74
2021/09/19 04:07:50;;;;;;;10.63;7.65;;;18.60;99.90;;;;;;5044299;28;20098;-74
2021/09/19 04:10:17;;;;;;;11.27;6.47;;;18.50;99.90;;;;;;5043608;28;20060;-75
2021/09/19 04:12:43;;;;;;;12.00;7.28;;;18.40;99.90;;;;;;5046197;28;20017;-75
2021/09/19 04:15:10;;;;;;;12.38;9.20;;;18.40;99.90;;;;;;5044746;28;20029;-75
2021/09/19 04:17:36;;;;;;;9.40;7.55;;;18.50;99.90;;;;;;5045559;28;20072;-75
2021/09/19 04:20:04;;;;;;;10.15;6.72;;;18.50;99.90;;;;;;5046081;28;20436;-75
2021/09/19 04:22:30;;;;;;;6.53;5.22;;;18.60;99.90;;;;;;5046061;28;20029;-75
2021/09/19 04:24:56;;;;;;;8.85;5.90;;;18.60;99.90;;;;;;5045090;28;20037;-75
2021/09/19 04:27:22;;;;;;;9.93;6.68;;;18.60;99.90;;;;;;5045147;28;20045;-75
2021/09/19 04:29:48;;;;;;;10.82;6.13;;;18.60;99.90;;;;;;5045445;28;20467;-75
2021/09/19 04:32:14;;;;;;;9.57;6.63;;;18.60;99.90;;;;;;5045534;28;20075;-75
2021/09/19 04:34:40;;;;;;;12.18;6.88;;;18.50;99.90;;;;;;5045348;28;20478;-75
2021/09/19 04:37:06;;;;;;;11.60;6.55;;;18.40;99.90;;;;;;5045754;28;20047;-74
2021/09/19 04:39:31;;;;;;;10.32;6.97;;;18.50;99.90;;;;;;5045750;28;20547;-75
2021/09/19 04:41:57;;;;;;;8.15;6.40;;;18.50;99.90;;;;;;5045090;28;20049;-75
2021/09/19 04:44:23;;;;;;;10.25;6.82;;;18.40;99.90;;;;;;5044674;28;20395;-75
2021/09/19 04:46:48;;;;;;;11.05;7.07;;;18.50;99.90;;;;;;5044817;28;20050;-75
2021/09/19 04:49:14;;;;;;;10.43;6.80;;;18.60;99.90;;;;;;5045473;28;20029;-75
2021/09/19 04:51:40;;;;;;;10.07;6.82;;;18.60;99.90;;;;;;5045030;28;20426;-75
2021/09/19 04:54:05;;;;;;;9.80;7.20;;;18.50;99.90;;;;;;5037414;28;20103;-72
2021/09/19 04:56:31;;;;;;;10.90;7.10;;;18.50;99.90;;;;;;5043463;28;20024;-72
2021/09/19 04:58:57;;;;;;;10.57;7.25;;;18.50;99.90;;;;;;5043152;28;20033;-74
2021/09/19 05:01:22;;;;;;;8.90;6.40;;;18.50;99.90;;;;;;5043139;28;20039;-75
2021/09/19 05:03:48;;;;;;;11.80;7.85;;;18.50;99.90;;;;;;5042991;28;20597;-75
2021/09/19 05:06:13;;;;;;;12.32;8.70;;;18.50;99.90;;;;;;5043413;28;20634;-72
2021/09/19 05:08:39;;;;;;;16.02;8.43;;;18.50;99.90;;;;;;5042460;28;20033;-72
2021/09/19 05:11:05;;;;;;;14.10;8.90;;;18.50;99.90;;;;;;5043043;28;20127;-75
2021/09/19 05:13:31;;;;;;;11.40;8.13;;;18.50;99.90;;;;;;5044714;28;20029;-75
2021/09/19 05:15:56;;;;;;;12.18;9.38;;;18.50;99.90;;;;;;5044394;28;20032;-75
2021/09/19 05:18:22;;;;;;;11.55;7.55;;;18.60;99.90;;;;;;5044480;28;20032;-75
2021/09/19 05:20:48;;;;;;;13.23;8.20;;;18.60;99.90;;;;;;5044350;28;20092;-75
2021/09/19 05:23:13;;;;;;;15.80;9.73;;;18.70;99.90;;;;;;5044679;28;20033;-75
2021/09/19 05:25:40;;;;;;;10.50;7.72;;;18.70;99.90;;;;;;5044600;28;20581;-75
2021/09/19 05:28:06;;;;;;;13.98;10.02;;;18.60;99.90;;;;;;5044879;28;20087;-75
2021/09/19 05:30:32;;;;;;;13.18;9.95;;;18.60;99.90;;;;;;5044515;28;20545;-75
2021/09/19 05:32:58;;;;;;;14.38;9.57;;;18.60;99.90;;;;;;5045196;28;20067;-75
2021/09/19 05:35:24;;;;;;;12.10;8.73;;;18.60;99.90;;;;;;5043705;28;20032;-73
2021/09/19 05:37:49;;;;;;;12.82;9.18;;;18.70;99.90;;;;;;5037573;28;20719;-75
2021/09/19 05:40:15;;;;;;;14.70;9.82;;;18.70;99.90;;;;;;5047166;28;20130;-75
2021/09/19 05:42:41;;;;;;;11.70;10.15;;;18.80;99.90;;;;;;5045990;28;20113;-72
2021/09/19 05:45:08;;;;;;;15.50;12.38;;;18.80;99.90;;;;;;5045144;28;20037;-75
2021/09/19 05:47:34;;;;;;;13.98;11.55;;;18.80;99.90;;;;;;5045150;28;20516;-73
2021/09/19 05:49:59;;;;;;;12.95;10.55;;;18.80;99.90;;;;;;5045233;28;20043;-72
2021/09/19 05:52:25;;;;;;;15.55;12.02;;;18.80;99.90;;;;;;5045633;28;20065;-75
2021/09/19 05:54:51;;;;;;;16.50;12.32;;;18.80;99.90;;;;;;5045237;28;20636;-72
2021/09/19 05:57:17;;;;;;;13.07;11.30;;;18.80;99.90;;;;;;5044711;28;20512;-72
2021/09/19 05:59:42;;;;;;;15.98;12.70;;;18.90;99.90;;;;;;5046946;28;20611;-72
2021/09/19 06:02:08;;;;;;;15.82;11.73;;;18.90;99.90;;;;;;5047093;28;20031;-74
2021/09/19 06:04:34;;;;;;;41.55;14.13;;;18.90;99.90;;;;;;5046624;28;20060;-75
2021/09/19 06:06:59;;;;;;;13.88;10.05;;;18.90;99.90;;;;;;5046105;28;20049;-75
2021/09/19 06:09:25;;;;;;;16.80;10.40;;;18.90;99.90;;;;;;5042910;28;20033;-75
2021/09/19 06:11:51;;;;;;;14.77;10.65;;;18.90;99.90;;;;;;5043099;28;20025;-75
2021/09/19 06:14:16;;;;;;;17.33;10.32;;;18.90;99.90;;;;;;5042722;28;20045;-75
2021/09/19 06:16:42;;;;;;;14.48;9.43;;;18.80;99.90;;;;;;5042352;28;20021;-75
2021/09/19 06:19:08;;;;;;;11.48;8.80;;;18.80;99.90;;;;;;5043307;28;20403;-75
2021/09/19 06:21:33;;;;;;;13.88;9.52;;;18.70;99.90;;;;;;5043769;28;20025;-75
2021/09/19 06:23:59;;;;;;;11.40;9.73;;;18.70;99.90;;;;;;5043683;28;20024;-75
2021/09/19 06:26:25;;;;;;;13.07;9.82;;;18.70;99.90;;;;;;5043247;28;20035;-75
2021/09/19 06:28:51;;;;;;;14.93;8.63;;;18.80;99.90;;;;;;5042132;28;20033;-75
2021/09/19 06:31:16;;;;;;;12.30;8.93;;;18.80;99.90;;;;;;5043780;28;20402;-75
2021/09/19 06:33:43;;;;;;;11.98;8.60;;;18.80;99.90;;;;;;5047486;28;20984;-73
2021/09/19 06:36:09;;;;;;;13.25;9.68;;;18.80;99.90;;;;;;5047252;28;20036;-75
2021/09/19 06:38:34;;;;;;;13.07;9.00;;;18.80;99.90;;;;;;5039206;28;20033;-75
2021/09/19 06:41:00;;;;;;;11.25;8.63;;;18.80;99.90;;;;;;5030390;28;20396;-75
2021/09/19 06:43:26;;;;;;;12.52;9.50;;;18.80;99.90;;;;;;5045771;28;20025;-74
2021/09/19 06:45:52;;;;;;;12.70;8.60;;;18.80;99.90;;;;;;5038407;28;20087;-74
2021/09/19 06:48:17;;;;;;;11.65;8.77;;;18.80;99.90;;;;;;5036331;28;20045;-74
2021/09/19 06:50:43;;;;;;;15.70;9.75;;;18.80;99.90;;;;;;5046567;28;20104;-74
2021/09/19 06:53:09;;;;;;;13.98;9.25;;;18.70;99.90;;;;;;5035718;28;20025;-74
2021/09/19 06:55:35;;;;;;;14.05;9.82;;;18.60;99.90;;;;;;5044763;28;20040;-76
2021/09/19 06:58:01;;;;;;;14.70;9.50;;;18.50;99.90;;;;;;5047564;28;20078;-78
2021/09/19 07:00:26;;;;;;;13.20;9.38;;;18.50;99.90;;;;;;5048013;28;20060;-76
2021/09/19 07:02:52;;;;;;;14.05;9.85;;;18.40;99.90;;;;;;5042985;28;20029;-75
2021/09/19 07:05:19;;;;;;;12.80;9.02;;;18.40;99.90;;;;;;5046053;28;20029;-75
2021/09/19 07:07:45;;;;;;;11.75;8.02;;;18.40;99.90;;;;;;5045306;28;20056;-74
2021/09/19 07:10:11;;;;;;;11.70;7.95;;;18.40;99.90;;;;;;5046087;28;20025;-74
2021/09/19 07:12:37;;;;;;;10.20;8.38;;;18.40;99.90;;;;;;5049213;28;20036;-74
2021/09/19 07:15:05;;;;;;;11.52;8.18;;;18.40;99.90;;;;;;5046935;28;20031;-74
2021/09/19 07:17:30;;;;;;;9.93;7.68;;;18.40;99.90;;;;;;5046525;28;20028;-74
2021/09/19 07:19:57;;;;;;;13.68;9.35;;;18.40;99.90;;;;;;5044728;28;20032;-75
2021/09/19 07:22:22;;;;;;;11.85;9.68;;;18.40;99.90;;;;;;5046814;28;20047;-74
2021/09/19 07:24:48;;;;;;;10.90;8.68;;;18.40;99.90;;;;;;5049567;28;20538;-74
2021/09/19 07:27:14;;;;;;;15.18;10.70;;;18.30;99.90;;;;;;5051509;28;20045;-74
2021/09/19 07:29:40;;;;;;;11.98;9.40;;;18.30;99.90;;;;;;5045673;28;20609;-74
2021/09/19 07:32:07;;;;;;;10.52;7.53;;;18.40;99.90;;;;;;5046258;28;20102;-74
2021/09/19 07:34:36;;;;;;;10.45;7.15;;;18.40;99.90;;;;;;5046276;28;20025;-74
2021/09/19 07:37:04;;;;;;;8.40;6.38;;;18.40;99.90;;;;;;5045938;28;20022;-75
2021/09/19 07:39:30;;;;;;;7.75;6.05;;;18.40;99.90;;;;;;5046065;28;20029;-74
2021/09/19 07:41:56;;;;;;;8.07;5.72;;;18.40;99.90;;;;;;5047266;28;20505;-74
2021/09/19 07:44:22;;;;;;;5.50;3.85;;;18.10;99.90;;;;;;5044064;28;20083;-74
2021/09/19 07:46:49;;;;;;;7.57;5.72;;;18.20;99.90;;;;;;5046889;28;20064;-75
2021/09/19 07:49:17;;;;;;;5.65;3.90;;;18.20;99.90;;;;;;5046244;28;20082;-75
2021/09/19 07:51:43;;;;;;;5.10;3.33;;;18.20;99.90;;;;;;5028976;28;20575;-75
2021/09/19 07:54:09;;;;;;;5.32;3.70;;;18.20;99.90;;;;;;5038309;28;20026;-78
2021/09/19 07:56:35;;;;;;;11.73;5.30;;;18.30;99.90;;;;;;5036965;28;20395;-75
2021/09/19 07:59:01;;;;;;;6.57;3.58;;;18.30;99.90;;;;;;5046554;28;20032;-74
2021/09/19 08:01:26;;;;;;;7.13;3.75;;;18.50;99.90;;;;;;5042143;28;20098;-74
2021/09/19 08:03:52;;;;;;;7.35;3.70;;;18.50;99.90;;;;;;5040456;28;20418;-74
2021/09/19 08:06:20;;;;;;;5.25;3.67;;;18.50;99.90;;;;;;5041832;28;20048;-74
2021/09/19 08:08:45;;;;;;;5.47;2.90;;;18.60;99.90;;;;;;5040336;28;20130;-74
2021/09/19 08:11:11;;;;;;;5.45;3.35;;;18.70;99.90;;;;;;5044320;28;20636;-75
2021/09/19 08:13:37;;;;;;;4.43;2.55;;;18.80;99.90;;;;;;5042252;28;20576;-75
2021/09/19 08:16:03;;;;;;;8.73;5.97;;;18.90;99.90;;;;;;5043357;28;20029;-76
2021/09/19 08:18:28;;;;;;;9.50;7.13;;;19.00;99.90;;;;;;5040576;28;20037;-75
2021/09/19 08:21:28;;;;;;;11.77;7.53;;;19.00;99.90;;;;;;5043530;28;20032;-74
2021/09/19 08:23:54;;;;;;;4.57;3.38;;;18.90;99.90;;;;;;5060031;28;20028;-75
2021/09/19 08:26:20;;;;;;;5.95;4.10;;;18.90;99.90;;;;;;5050712;28;20073;-74
2021/09/19 08:28:45;;;;;;;5.60;3.33;;;18.80;99.90;;;;;;5036390;28;20427;-77
2021/09/19 08:31:11;;;;;;;7.53;3.17;;;18.80;99.90;;;;;;5046056;28;20021;-75
2021/09/19 08:33:37;;;;;;;5.82;4.60;;;18.80;99.90;;;;;;5045957;28;20091;-75
2021/09/19 08:36:03;;;;;;;9.23;7.60;;;18.90;99.90;;;;;;5046456;28;20078;-74
2021/09/19 08:38:29;;;;;;;12.60;8.93;;;18.90;99.90;;;;;;5044042;28;20776;-75
2021/09/19 08:40:57;;;;;;;11.52;9.15;;;19.00;99.90;;;;;;5040784;28;20029;-75
2021/09/19 08:43:23;;;;;;;11.77;9.02;;;19.20;99.90;;;;;;5037510;28;20025;-74
2021/09/19 08:45:49;;;;;;;12.48;8.95;;;19.20;99.90;;;;;;5045675;28;20029;-74
2021/09/19 08:48:17;;;;;;;11.55;8.05;;;19.00;99.90;;;;;;5037070;28;20444;-74
2021/09/19 08:50:44;;;;;;;10.65;8.15;;;19.00;99.90;;;;;;5046041;28;20858;-75
2021/09/19 08:53:11;;;;;;;10.48;7.88;;;18.90;99.90;;;;;;5042137;28;20036;-74
2021/09/19 08:55:37;;;;;;;11.93;9.15;;;19.10;99.90;;;;;;5025399;28;20389;-74
2021/09/19 08:58:03;;;;;;;15.05;10.73;;;19.20;99.90;;;;;;5037970;28;20033;-74
2021/09/19 09:00:48;;;;;;;11.88;9.50;;;19.20;99.90;;;;;;5045822;28;20058;-76
2021/09/19 09:03:15;;;;;;;13.98;10.60;;;19.20;99.90;;;;;;5024347;28;20033;-74
2021/09/19 09:05:41;;;;;;;14.00;9.77;;;19.30;99.90;;;;;;5043891;28;20039;-74
2021/09/19 09:08:09;;;;;;;9.60;8.05;;;19.20;99.90;;;;;;5030143;28;20539;-76
2021/09/19 09:10:44;;;;;;;8.73;6.47;;;19.40;99.90;;;;;;5033400;28;20150;-76
2021/09/19 09:13:15;;;;;;;12.85;10.02;;;19.40;99.90;;;;;;5045456;28;20029;-77
2021/09/19 09:16:00;;;;;;;10.13;8.18;;;19.50;99.90;;;;;;5052289;28;20176;-76
2021/09/19 09:18:38;;;;;;;11.95;10.30;;;19.60;99.90;;;;;;5057879;28;20029;-75
2021/09/19 09:21:25;;;;;;;12.65;10.55;;;19.60;99.90;;;;;;5047652;28;20574;-76
2021/09/19 09:23:53;;;;;;;12.90;10.57;;;19.60;99.90;;;;;;5047723;28;20501;-73
2021/09/19 09:26:30;;;;;;;15.65;11.52;;;19.60;99.90;;;;;;5048851;28;20422;-76
2021/09/19 09:28:58;;;;;;;10.07;7.05;;;19.50;99.90;;;;;;5046384;28;20117;-73
2021/09/19 09:31:33;;;;;;;13.10;9.60;;;19.60;99.90;;;;;;5045436;28;20021;-77
2021/09/19 09:34:15;;;;;;;11.18;9.57;;;19.60;99.90;;;;;;5046715;28;20025;-74
2021/09/19 09:36:48;;;;;;;12.63;9.90;;;19.70;99.90;;;;;;5046855;28;20028;-76
2021/09/19 09:39:28;;;;;;;14.95;11.15;;;19.70;99.90;;;;;;5047297;28;20112;-76
2021/09/19 09:42:05;;;;;;;13.65;11.48;;;19.50;99.90;;;;;;5043157;28;20040;-75
2021/09/19 09:44:32;;;;;;;13.20;9.80;;;19.60;99.90;;;;;;5043710;28;20078;-75
2021/09/19 09:47:00;;;;;;;10.70;8.80;;;19.60;99.90;;;;;;5044640;28;20083;-74
2021/09/19 09:49:36;;;;;;;12.25;9.43;;;19.40;99.90;;;;;;5046535;28;20047;-77
2021/09/19 09:52:09;;;;;;;13.55;9.60;;;19.30;99.90;;;;;;5040129;28;20021;-74
2021/09/19 09:54:42;;;;;;;14.57;10.37;;;19.30;99.90;;;;;;5043060;28;20094;-73
2021/09/19 09:57:09;;;;;;;11.73;7.05;;;19.30;99.90;;;;;;5041908;28;20364;-72
2021/09/19 09:59:36;;;;;;;9.57;7.50;;;19.30;99.90;;;;;;5042170;28;20094;-72
2021/09/19 10:02:03;;;;;;;9.70;7.85;;;19.10;99.90;;;;;;5039788;28;20025;-71
2021/09/19 10:04:29;;;;;;;10.35;8.55;;;19.20;99.90;;;;;;5040695;28;20036;-72
2021/09/19 10:06:56;;;;;;;9.98;7.68;;;19.50;99.90;;;;;;5041696;28;20052;-72
2021/09/19 10:09:23;;;;;;;7.97;6.35;;;19.70;99.90;;;;;;5043877;28;20016;-72
2021/09/19 10:11:49;;;;;;;7.50;5.25;;;19.70;99.90;;;;;;5041481;28;20045;-73
2021/09/19 10:14:15;;;;;;;10.95;5.28;;;19.90;99.90;;;;;;5038211;28;20044;-75
2021/09/19 10:16:41;;;;;;;10.80;8.95;;;20.10;99.90;;;;;;5037094;28;20376;-73
2021/09/19 10:19:08;;;;;;;12.07;8.77;;;19.80;99.90;;;;;;5041344;28;20029;-72
2021/09/19 10:21:35;;;;;;;11.07;9.20;;;19.60;99.90;;;;;;5029095;28;20033;-71
2021/09/19 10:24:02;;;;;;;10.20;9.15;;;19.40;99.90;;;;;;5031377;28;20486;-74
2021/09/19 10:26:30;;;;;;;12.23;9.43;;;19.30;99.90;;;;;;5044469;28;20029;-75
2021/09/19 10:28:59;;;;;;;15.70;10.80;;;19.30;99.90;;;;;;5040537;28;20033;-73
2021/09/19 10:31:32;;;;;;;17.20;11.43;;;19.30;99.90;;;;;;5039457;28;20108;-75
2021/09/19 10:34:10;;;;;;;18.73;13.00;;;19.30;99.90;;;;;;5038321;28;20033;-74
2021/09/19 10:36:38;;;;;;;14.38;11.27;;;19.10;99.90;;;;;;5042428;28;20578;-73
2021/09/19 10:39:36;;;;;;;13.63;11.20;;;19.10;99.90;;;;;;5041014;28;20478;-73
2021/09/19 10:42:25;;;;;;;15.95;12.23;;;19.00;99.90;;;;;;5043713;28;20384;-74
2021/09/19 10:44:53;;;;;;;13.55;10.93;;;19.00;99.90;;;;;;5042682;28;20106;-73
2021/09/19 10:47:25;;;;;;;17.25;15.00;;;19.00;99.90;;;;;;5040320;28;20048;-72
2021/09/19 10:50:10;;;;;;;11.90;9.95;;;18.90;99.90;;;;;;5044030;28;20025;-70
2021/09/19 10:52:43;;;;;;;11.70;10.43;;;18.90;99.90;;;;;;5034608;28;20029;-72
2021/09/19 10:55:20;;;;;;;14.65;10.23;;;19.10;99.90;;;;;;5042271;28;20025;-74
2021/09/19 10:57:55;;;;;;;28.50;10.00;;;19.50;99.90;;;;;;5043627;28;20823;-72
2021/09/19 11:00:21;;;;;;;12.43;10.68;;;19.60;99.90;;;;;;5025184;28;20436;-70
2021/09/19 11:03:11;;;;;;;14.55;11.98;;;19.50;99.90;;;;;;5040251;28;20064;-71
2021/09/19 11:05:40;;;;;;;12.32;11.00;;;19.60;99.90;;;;;;5039968;28;20048;-73
2021/09/19 11:08:06;;;;;;;18.27;12.43;;;19.60;99.90;;;;;;5040861;28;20079;-73
2021/09/19 11:10:33;;;;;;;13.55;11.35;;;19.50;99.90;;;;;;5043431;28;20487;-71
2021/09/19 11:13:25;;;;;;;11.27;9.93;;;19.50;99.90;;;;;;5042744;28;20063;-73
2021/09/19 11:16:03;;;;;;;11.30;9.25;;;19.40;99.90;;;;;;5033446;28;20025;-72
2021/09/19 11:18:47;;;;;;;7.70;6.90;;;19.40;99.90;;;;;;5025842;28;20576;-72
2021/09/19 11:21:48;;;;;;;7.47;6.47;;;19.30;99.90;;;;;;5047547;28;20114;-71
2021/09/19 11:24:15;;;;;;;9.93;7.07;;;19.30;99.90;;;;;;5036906;28;20038;-71
2021/09/19 11:26:50;;;;;;;10.05;7.82;;;19.30;99.90;;;;;;5039823;28;20537;-72
2021/09/19 11:29:24;;;;;;;11.05;8.07;;;19.60;99.90;;;;;;5044730;28;20025;-71
2021/09/19 11:31:52;;;;;;;9.35;8.38;;;19.60;99.90;;;;;;5034073;28;20025;-71
2021/09/19 11:34:20;;;;;;;13.05;7.43;;;19.50;99.90;;;;;;5043009;28;20021;-69
2021/09/19 11:36:56;;;;;;;8.55;7.20;;;19.40;99.90;;;;;;5043317;28;20041;-69
2021/09/19 11:39:22;;;;;;;13.65;8.45;;;19.30;99.90;;;;;;5045061;28;20025;-71
2021/09/19 11:41:49;;;;;;;14.55;9.63;;;19.30;99.90;;;;;;5045811;28;20738;-69
2021/09/19 11:44:16;;;;;;;11.77;9.38;;;19.10;99.90;;;;;;5041653;28;20593;-71
2021/09/19 11:46:50;;;;;;;10.88;9.43;;;19.00;99.90;;;;;;5043441;28;20029;-70
2021/09/19 11:49:19;;;;;;;13.82;8.88;;;18.90;99.90;;;;;;5031359;28;20072;-71
2021/09/19 11:51:45;;;;;;;15.25;9.10;;;18.80;99.90;;;;;;5044318;28;20435;-70
2021/09/19 11:54:14;;;;;;;14.75;12.73;;;18.80;99.90;;;;;;5044555;28;20094;-71
2021/09/19 11:56:42;;;;;;;51.47;12.32;;;18.80;99.90;;;;;;5045184;28;20112;-71
2021/09/19 11:59:14;;;;;;;11.90;8.02;;;18.90;99.90;;;;;;5045907;28;20434;-71
2021/09/19 12:01:41;;;;;;;8.02;6.30;;;18.70;99.90;;;;;;5042900;28;20656;-70
2021/09/19 12:04:12;;;;;;;8.25;7.20;;;18.70;99.90;;;;;;5044292;28;20037;-71
2021/09/19 12:06:41;;;;;;;10.32;8.23;;;18.80;99.90;;;;;;5039667;28;20332;-69
2021/09/19 12:09:21;;;;;;;8.52;6.90;;;19.00;99.90;;;;;;5043439;28;20534;-70
2021/09/19 12:11:53;;;;;;;10.65;7.95;;;19.20;99.90;;;;;;5044040;28;20036;-70
2021/09/19 12:14:27;;;;;;;10.32;8.15;;;19.20;99.90;;;;;;5041708;28;20033;-71
2021/09/19 12:16:57;;;;;;;;;;;19.20;99.90;;;;;;5042172;28;20037;-72
2021/09/19 12:19:23;;;;;;;7.80;4.63;;;19.30;99.90;;;;;;5037562;28;19916;-70
2021/09/19 12:21:58;;;;;;;3.90;2.25;;;19.40;99.90;;;;;;5044654;28;20072;-69
2021/09/19 12:24:26;;;;;;;6.60;4.07;;;19.30;99.90;;;;;;5044016;28;20037;-71
2021/09/19 12:27:07;;;;;;;4.65;2.83;;;19.60;99.90;;;;;;5042965;28;20040;-71
2021/09/19 12:29:33;;;;;;;5.72;2.50;;;19.90;99.90;;;;;;5042497;28;20033;-70
2021/09/19 12:32:01;;;;;;;5.20;2.60;;;20.10;99.90;;;;;;5029568;28;20037;-69
2021/09/19 12:34:27;;;;;;;8.18;6.50;;;20.10;99.90;;;;;;5041123;28;20033;-71
2021/09/19 12:36:55;;;;;;;11.98;8.85;;;20.20;99.90;;;;;;5040101;28;20083;-71
2021/09/19 12:39:26;;;;;;;14.60;9.90;;;20.00;99.90;;;;;;5041631;28;20029;-72
2021/09/19 12:41:55;;;;;;;12.75;9.05;;;19.60;99.90;;;;;;5041250;28;20491;-72
2021/09/19 12:44:23;;;;;;;13.23;9.45;;;19.60;99.90;;;;;;5042664;28;20025;-73